createdAt,value
2023-10-11T00:00:33.145Z,95060.03
2023-10-11T00:03:01.070Z,95060.03
2023-10-11T00:05:37.228Z,95063.56
2023-10-11T00:08:04.490Z,95061.38
2023-10-11T00:10:30.958Z,95060.03
2023-10-11T00:13:00.292Z,95038.28
2023-10-11T00:15:27.929Z,95068.44
2023-10-11T00:17:54.365Z,95066.53
2023-10-11T00:20:29.292Z,95064.09
2023-10-11T00:22:56.720Z,95068.16
2023-10-11T00:25:26.100Z,95066.25
2023-10-11T00:27:52.682Z,95068.97
2023-10-11T00:30:19.579Z,95067.28
2023-10-11T00:32:49.050Z,95067.56
2023-10-11T00:35:25.643Z,95069.72
2023-10-11T00:37:55.690Z,95063.50
2023-10-11T00:40:33.462Z,95060.22
2023-10-11T00:42:59.852Z,95058.88
2023-10-11T00:45:31.529Z,95060.75
2023-10-11T00:47:58.220Z,95059.38
2023-10-11T00:50:24.598Z,95053.41
2023-10-11T00:52:51.605Z,95059.38
2023-10-11T00:55:24.371Z,95052.31
2023-10-11T00:57:51.034Z,95049.88
2023-10-11T01:00:18.869Z,95052.03
2023-10-11T01:02:48.411Z,95048.25
2023-10-11T01:05:15.767Z,95047.94
2023-10-11T01:07:42.120Z,95049.81
2023-10-11T01:10:08.932Z,95041.41
2023-10-11T01:12:35.453Z,95047.38
2023-10-11T01:15:02.254Z,95050.09
2023-10-11T01:17:32.741Z,95052.78
2023-10-11T01:20:00.798Z,95043.56
2023-10-11T01:22:30.146Z,95038.41
2023-10-11T01:24:59.461Z,95037.03
2023-10-11T01:27:31.317Z,95034.59
2023-10-11T01:29:58.645Z,95033.22
2023-10-11T01:32:25.083Z,95028.06
2023-10-11T01:34:53.047Z,95028.59
2023-10-11T01:37:19.410Z,95033.47
2023-10-11T01:39:45.760Z,95031.56
2023-10-11T01:42:12.134Z,95031.03
2023-10-11T01:44:39.941Z,95032.66
2023-10-11T01:47:06.670Z,95034.78
2023-10-11T01:49:40.413Z,95027.47
2023-10-11T01:52:07.925Z,95022.59
2023-10-11T01:54:35.476Z,95029.09
2023-10-11T01:57:02.925Z,95022.31
2023-10-11T01:59:29.335Z,95024.19
2023-10-11T02:02:04.442Z,95023.38
2023-10-11T02:04:31.410Z,95019.03
2023-10-11T02:06:58.401Z,95015.81
2023-10-11T02:09:24.969Z,95020.91
2023-10-11T02:11:55.437Z,95019.81
2023-10-11T02:14:25.554Z,95015.72
2023-10-11T02:16:54.394Z,95021.13
2023-10-11T02:19:24.015Z,95025.47
2023-10-11T02:21:50.412Z,95022.25
2023-10-11T02:24:16.857Z,95017.91
2023-10-11T02:31:51.649Z,95025.47
2023-10-11T02:34:18.164Z,95019.50
2023-10-11T02:36:44.935Z,95020.56
2023-10-11T02:39:21.875Z,95017.31
2023-10-11T02:41:50.846Z,95023.00
2023-10-11T02:44:17.401Z,95021.63
2023-10-11T02:46:44.334Z,95022.16
2023-10-11T02:49:31.319Z,95023.78
2023-10-11T02:51:58.542Z,95024.06
2023-10-11T02:54:35.488Z,95024.06
2023-10-11T02:57:02.318Z,95029.72
2023-10-11T02:59:28.897Z,95026.19
2023-10-11T03:02:01.316Z,95029.97
2023-10-11T03:04:33.928Z,95034.03
2023-10-11T03:07:01.657Z,95034.28
2023-10-11T03:09:30.657Z,95031.84
2023-10-11T03:11:57.933Z,95031.03
2023-10-11T03:14:24.831Z,95029.66
2023-10-11T03:16:58.217Z,95024.75
2023-10-11T03:19:27.591Z,95020.94
2023-10-11T03:21:55.245Z,95020.13
2023-10-11T03:24:22.578Z,95016.84
2023-10-11T03:26:49.925Z,95013.34
2023-10-11T03:29:20.274Z,95017.13
2023-10-11T03:31:46.977Z,95018.75
2023-10-11T03:34:13.441Z,95017.91
2023-10-11T03:36:52.396Z,95015.94
2023-10-11T03:39:29.474Z,95018.34
2023-10-11T03:42:08.718Z,95016.47
2023-10-11T03:44:41.379Z,95015.66
2023-10-11T03:47:15.596Z,95015.91
2023-10-11T03:49:42.340Z,95014.00
2023-10-11T03:52:24.153Z,95022.94
2023-10-11T03:55:23.017Z,95015.38
2023-10-11T03:57:52.061Z,95018.91
2023-10-11T04:00:24.762Z,95022.13
2023-10-11T04:03:06.571Z,95026.13
2023-10-11T04:05:37.133Z,95025.06
2023-10-11T04:08:08.969Z,95023.97
2023-10-11T04:10:44.606Z,95029.59
2023-10-11T04:13:16.022Z,95027.09
2023-10-11T04:15:42.986Z,95032.56
2023-10-11T04:18:21.762Z,95026.00
2023-10-11T04:21:05.360Z,95034.38
2023-10-11T04:23:36.965Z,95027.59
2023-10-11T04:26:10.593Z,95031.91
2023-10-11T04:28:42.999Z,95033.78
2023-10-11T04:31:29.789Z,95035.44
2023-10-11T04:33:56.278Z,95025.16
2023-10-11T04:36:23.202Z,95035.47
2023-10-11T04:38:50.425Z,95036.53
2023-10-11T04:41:21.291Z,95037.91
2023-10-11T04:44:07.314Z,95052.75
2023-10-11T04:46:33.917Z,95048.69
2023-10-11T04:49:19.817Z,95053.53
2023-10-11T04:51:47.958Z,95053.97
2023-10-11T04:54:19.606Z,95053.66
2023-10-11T04:56:46.450Z,95056.03
2023-10-11T04:59:18.636Z,95060.34
2023-10-11T05:01:48.490Z,95064.19
2023-10-11T05:04:16.603Z,95062.31
2023-10-11T05:06:43.906Z,95059.63
2023-10-11T05:09:19.858Z,95059.63
2023-10-11T05:11:54.942Z,95060.44
2023-10-11T05:14:30.874Z,95066.91
2023-10-11T05:17:00.742Z,95064.19
2023-10-11T05:19:27.805Z,95064.69
2023-10-11T05:22:04.155Z,95056.84
2023-10-11T05:24:50.665Z,95051.91
2023-10-11T05:27:35.449Z,95057.31
2023-10-11T05:30:14.155Z,95051.09
2023-10-11T05:33:09.213Z,95054.63
2023-10-11T05:35:41.665Z,95048.66
2023-10-11T05:38:27.123Z,95055.13
2023-10-11T05:41:12.436Z,95051.63
2023-10-11T05:43:57.846Z,95052.69
2023-10-11T05:46:43.429Z,95044.56
2023-10-11T05:49:32.057Z,95055.69
2023-10-11T05:51:58.472Z,95059.22
2023-10-11T05:54:35.190Z,95059.53
2023-10-11T05:57:05.208Z,95066.34
2023-10-11T05:59:33.185Z,95070.56
2023-10-11T06:02:00.604Z,95074.06
2023-10-11T06:04:27.122Z,95078.09
2023-10-11T06:06:59.676Z,95074.81
2023-10-11T06:09:31.674Z,95076.44
2023-10-11T06:11:58.701Z,95081.34
2023-10-11T06:14:25.236Z,95082.47
2023-10-11T06:16:58.933Z,95083.94
2023-10-11T06:19:29.055Z,95089.66
2023-10-11T06:21:58.791Z,95096.16
2023-10-11T06:24:25.366Z,95093.75
2023-10-11T06:26:55.166Z,95092.13
2023-10-11T06:29:25.662Z,95095.22
2023-10-11T06:32:05.132Z,95099.41
2023-10-11T06:34:35.903Z,95090.88
2023-10-11T06:37:02.359Z,95083.72
2023-10-11T06:39:35.472Z,95088.53
2023-10-11T06:42:07.918Z,95089.03
2023-10-11T06:44:35.332Z,95092.53
2023-10-11T06:47:04.785Z,95081.81
2023-10-11T06:49:41.282Z,95090.59
2023-10-11T06:52:08.305Z,95088.16
2023-10-11T06:54:34.640Z,95074.13
2023-10-11T06:57:02.528Z,95078.81
2023-10-11T06:59:29.520Z,95072.16
2023-10-11T07:01:56.048Z,95077.91
2023-10-11T07:04:22.627Z,95077.34
2023-10-11T07:06:49.869Z,95079.09
2023-10-11T07:09:22.862Z,95076.94
2023-10-11T07:11:53.406Z,95074.06
2023-10-11T07:14:20.058Z,95069.81
2023-10-11T07:16:47.054Z,95074.75
2023-10-11T07:19:16.893Z,95067.50
2023-10-11T07:21:53.127Z,95069.84
2023-10-11T07:24:31.681Z,95075.28
2023-10-11T07:27:10.278Z,95076.13
2023-10-11T07:29:38.117Z,95082.09
2023-10-11T07:32:13.726Z,95080.00
2023-10-11T07:38:15.890Z,95082.31
2023-10-11T08:31:50.166Z,95061.28
2023-10-11T08:34:16.736Z,95055.47
2023-10-11T08:36:44.732Z,95051.13
2023-10-11T08:39:18.996Z,95048.59
2023-10-11T08:41:46.400Z,95054.13
2023-10-11T08:44:21.950Z,95054.06
2023-10-11T08:46:49.420Z,95052.41
2023-10-11T08:49:16.205Z,95051.94
2023-10-11T08:51:42.853Z,95053.22
2023-10-11T08:54:26.717Z,95055.13
2023-10-11T08:56:56.445Z,95048.06
2023-10-11T08:59:26.524Z,95053.59
2023-10-11T09:01:53.852Z,95044.16
2023-10-11T09:04:20.431Z,95056.31
2023-10-11T09:06:47.151Z,95056.97
2023-10-11T09:09:34.190Z,95048.78
2023-10-11T09:12:00.798Z,95057.50
2023-10-11T09:14:30.707Z,95061.94
2023-10-11T09:16:58.706Z,95052.72
2023-10-11T09:19:25.240Z,95049.78
2023-10-11T09:22:02.034Z,95049.53
2023-10-11T09:24:44.683Z,95051.78
2023-10-11T09:27:18.419Z,95044.09
2023-10-11T09:29:47.803Z,95046.72
2023-10-11T09:32:14.926Z,95054.34
2023-10-11T09:34:44.674Z,95049.84
2023-10-11T09:37:12.547Z,95051.44
2023-10-11T09:39:39.298Z,95044.66
2023-10-11T09:42:06.022Z,95047.06
2023-10-11T09:44:38.387Z,95044.00
2023-10-11T09:47:05.318Z,95039.81
2023-10-11T09:49:34.458Z,95043.09
2023-10-11T09:52:08.600Z,95039.09
2023-10-11T09:54:38.696Z,95036.88
2023-10-11T09:57:17.246Z,95040.44
2023-10-11T10:00:00.498Z,95034.13
2023-10-11T10:02:30.241Z,95032.34
2023-10-11T10:04:56.770Z,95034.47
2023-10-11T10:07:27.213Z,95036.56
2023-10-11T10:09:57.325Z,95035.75
2023-10-11T10:12:26.723Z,95028.78
2023-10-11T10:15:03.515Z,95035.09
2023-10-11T10:17:30.938Z,95038.19
2023-10-11T10:20:01.428Z,95035.28
2023-10-11T10:22:33.858Z,95032.03
2023-10-11T10:25:21.781Z,95030.09
2023-10-11T10:27:48.264Z,95032.38
2023-10-11T10:30:22.836Z,95030.41
2023-10-11T10:33:12.444Z,95032.69
2023-10-11T10:35:39.979Z,95024.31
2023-10-11T10:38:10.858Z,95024.31
2023-10-11T10:40:38.601Z,95024.31
2023-10-11T10:43:08.194Z,95021.88
2023-10-11T10:45:37.702Z,95018.16
2023-10-11T10:48:15.148Z,95017.03
2023-10-11T10:50:52.535Z,95021.88
2023-10-11T10:53:19.874Z,95014.56
2023-10-11T10:55:46.471Z,95005.97
2023-10-11T10:58:19.454Z,95000.66
2023-10-11T11:00:48.338Z,94997.72
2023-10-11T11:03:18.674Z,94988.03
2023-10-11T11:05:57.679Z,94985.16
2023-10-11T11:08:32.714Z,94984.81
2023-10-11T11:11:01.996Z,94983.19
2023-10-11T11:13:31.425Z,94978.84
2023-10-11T11:15:57.813Z,94972.84
2023-10-11T11:18:33.649Z,94966.22
2023-10-11T11:21:19.086Z,94964.75
2023-10-11T11:23:46.090Z,94962.19
2023-10-11T11:26:31.124Z,94956.03
2023-10-11T11:29:10.351Z,94943.06
2023-10-11T11:32:00.376Z,94945.00
2023-10-11T11:34:35.218Z,94944.53
2023-10-11T11:39:41.005Z,94942.59
2023-10-11T11:42:25.860Z,94938.22
2023-10-11T11:44:52.379Z,94927.56
2023-10-11T11:47:27.478Z,94930.78
2023-10-11T11:49:55.404Z,94933.19
2023-10-11T11:52:22.177Z,94919.78
2023-10-11T11:54:48.615Z,94921.38
2023-10-11T11:57:15.048Z,94920.56
2023-10-11T11:59:46.936Z,94912.00
2023-10-11T12:02:18.031Z,94908.09
2023-10-11T12:04:49.469Z,94905.03
2023-10-11T12:07:15.969Z,94903.88
2023-10-11T12:09:52.252Z,94905.81
2023-10-11T12:12:28.921Z,94892.25
2023-10-11T12:14:55.395Z,94889.16
2023-10-11T12:17:22.521Z,94888.00
2023-10-11T12:19:54.775Z,94885.59
2023-10-11T12:22:23.555Z,94885.25
2023-10-11T12:24:50.229Z,94885.25
2023-10-11T12:27:17.410Z,94881.69
2023-10-11T12:29:56.564Z,94877.34
2023-10-11T12:32:34.548Z,94879.59
2023-10-11T12:35:05.958Z,94871.03
2023-10-11T12:37:34.184Z,94866.00
2023-10-11T12:40:00.749Z,94861.28
2023-10-11T12:42:27.185Z,94862.44
2023-10-11T12:44:54.232Z,94859.34
2023-10-11T12:47:21.509Z,94850.44
2023-10-11T12:49:47.872Z,94848.81
2023-10-11T12:52:19.097Z,94851.56
2023-10-11T12:54:45.503Z,94848.00
2023-10-11T12:57:16.416Z,94848.81
2023-10-11T12:59:43.067Z,94841.69
2023-10-11T13:02:11.267Z,94837.00
2023-10-11T13:04:42.516Z,94836.66
2023-10-11T13:07:14.767Z,94837.94
2023-10-11T13:09:41.601Z,94843.44
2023-10-11T13:12:09.297Z,94837.59
2023-10-11T13:14:36.836Z,94839.22
2023-10-11T13:17:13.141Z,94828.53
2023-10-11T13:19:45.327Z,94837.59
2023-10-11T13:22:14.015Z,94831.16
2023-10-11T13:24:40.660Z,94839.75
2023-10-11T13:27:08.381Z,94830.69
2023-10-11T13:29:34.821Z,94823.56
2023-10-11T13:32:01.241Z,94834.13
2023-10-11T13:34:31.011Z,94821.16
2023-10-11T13:37:01.567Z,94821.97
2023-10-11T13:39:28.326Z,94825.84
2023-10-11T13:41:54.734Z,94830.22
2023-10-11T13:44:22.832Z,94820.00
2023-10-11T13:46:54.070Z,94817.25
2023-10-11T13:49:26.656Z,94819.53
2023-10-11T13:51:59.570Z,94813.25
2023-10-11T13:54:51.687Z,94809.34
2023-10-11T13:57:19.498Z,94816.47
2023-10-11T13:59:49.041Z,94810.47
2023-10-11T14:02:18.434Z,94810.47
2023-10-11T14:04:49.684Z,94814.69
2023-10-11T14:07:34.187Z,94813.53
2023-10-11T14:10:01.198Z,94811.59
2023-10-11T14:12:30.464Z,94809.69
2023-10-11T14:14:57.284Z,94799.78
2023-10-11T14:17:26.954Z,94801.72
2023-10-11T14:19:53.887Z,94807.56
2023-10-11T14:22:23.046Z,94800.78
2023-10-11T14:24:49.866Z,94792.53
2023-10-11T14:27:19.039Z,94792.06
2023-10-11T14:29:48.519Z,94792.72
2023-10-11T14:32:18.423Z,94797.25
2023-10-11T14:34:46.789Z,94781.44
2023-10-11T14:37:16.216Z,94782.44
2023-10-11T14:39:48.697Z,94787.25
2023-10-11T14:42:15.551Z,94784.84
2023-10-11T14:44:42.470Z,94782.91
2023-10-11T14:47:11.894Z,94778.19
2023-10-11T14:49:38.520Z,94776.25
2023-10-11T14:52:09.067Z,94774.66
2023-10-11T14:54:36.074Z,94771.09
2023-10-11T14:57:02.708Z,94776.13
2023-10-11T14:59:29.654Z,94767.72
2023-10-11T15:01:56.027Z,94768.53
2023-10-11T15:04:22.798Z,94761.44
2023-10-11T15:06:50.428Z,94765.63
2023-10-11T15:09:18.007Z,94766.28
2023-10-11T15:11:45.087Z,94762.25
2023-10-11T15:14:11.449Z,94767.28
2023-10-11T15:16:38.020Z,94764.38
2023-10-11T15:19:04.819Z,94769.38
2023-10-11T15:21:31.320Z,94768.09
2023-10-11T15:23:57.869Z,94767.94
2023-10-11T15:26:24.273Z,94772.50
2023-10-11T15:28:52.957Z,94777.19
2023-10-11T15:31:19.410Z,94775.75
2023-10-11T15:33:46.641Z,94774.94
2023-10-11T15:36:13.184Z,94778.50
2023-10-11T15:38:39.709Z,94776.41
2023-10-11T15:41:06.101Z,94780.63
2023-10-11T15:43:35.707Z,94780.81
2023-10-11T15:46:02.900Z,94786.47
2023-10-11T15:48:30.098Z,94785.38
2023-10-11T15:51:03.598Z,94781.00
2023-10-11T15:53:29.953Z,94781.81
2023-10-11T15:55:56.309Z,94784.75
2023-10-11T15:58:22.719Z,94784.09
2023-10-11T16:00:49.263Z,94787.81
2023-10-11T16:03:16.278Z,94783.28
2023-10-11T16:05:42.761Z,94791.06
2023-10-11T16:08:09.155Z,94786.06
2023-10-11T16:10:35.506Z,94793.63
2023-10-11T16:13:02.686Z,94795.25
2023-10-11T16:15:32.419Z,94794.31
2023-10-11T16:17:58.942Z,94798.00
2023-10-11T16:20:25.648Z,94792.50
2023-10-11T16:22:52.109Z,94793.91
2023-10-11T16:25:20.148Z,94792.59
2023-10-11T16:27:46.988Z,94789.34
2023-10-11T16:30:16.370Z,94797.84
2023-10-11T16:32:43.057Z,94803.50
2023-10-11T16:35:09.890Z,94797.97
2023-10-11T16:37:37.456Z,94805.34
2023-10-11T16:40:06.900Z,94800.72
2023-10-11T16:42:36.453Z,94800.22
2023-10-11T16:45:02.869Z,94798.53
2023-10-11T16:47:31.819Z,94805.09
2023-10-11T16:50:01.232Z,94811.34
2023-10-11T16:52:27.845Z,94803.06
2023-10-11T16:54:57.721Z,94815.69
2023-10-11T16:57:24.464Z,94818.16
2023-10-11T16:59:52.609Z,94812.09
2023-10-11T17:02:19.077Z,94814.88
2023-10-11T17:04:49.628Z,94818.06
2023-10-11T17:07:16.917Z,94826.19
2023-10-11T17:09:43.398Z,94815.47
2023-10-11T17:12:11.352Z,94829.25
2023-10-11T17:14:40.273Z,94827.75
2023-10-11T17:17:06.896Z,94836.63
2023-10-11T17:19:37.272Z,94842.34
2023-10-11T17:22:05.730Z,94828.56
2023-10-11T17:24:32.466Z,94833.72
2023-10-11T17:26:59.003Z,94834.94
2023-10-11T17:29:25.426Z,94842.41
2023-10-11T17:31:52.151Z,94842.03
2023-10-11T17:34:20.389Z,94848.16
2023-10-11T17:36:47.904Z,94848.28
2023-10-11T17:39:15.273Z,94853.31
2023-10-11T17:41:42.980Z,94860.75
2023-10-11T17:44:09.387Z,94863.28
2023-10-11T17:46:35.806Z,94868.00
2023-10-11T17:49:02.578Z,94876.59
2023-10-11T17:51:29.297Z,94873.94
2023-10-11T17:53:55.696Z,94866.13
2023-10-11T17:56:23.284Z,94884.28
2023-10-11T17:58:50.089Z,94881.88
2023-10-11T18:01:20.007Z,94881.16
2023-10-11T18:03:46.717Z,94882.31
2023-10-11T18:06:13.310Z,94888.38
2023-10-11T18:08:39.985Z,94887.44
2023-10-11T18:11:07.307Z,94885.66
2023-10-11T18:13:34.565Z,94886.78
2023-10-11T18:16:01.166Z,94895.34
2023-10-11T18:18:27.851Z,94888.91
2023-10-11T18:20:54.497Z,94888.47
2023-10-11T18:23:22.754Z,94898.13
2023-10-11T18:25:49.585Z,94897.69
2023-10-11T18:28:16.099Z,94896.09
2023-10-11T18:30:42.624Z,94904.34
2023-10-11T18:33:09.592Z,94900.28
2023-10-11T18:35:46.378Z,94890.53
2023-10-11T18:38:18.019Z,94898.28
2023-10-11T18:40:46.976Z,94897.22
2023-10-11T18:43:13.842Z,94892.69
2023-10-11T18:45:40.498Z,94893.28
2023-10-11T18:48:07.393Z,94896.88
2023-10-11T18:50:34.027Z,94893.41
2023-10-11T18:53:04.510Z,94890.22
2023-10-11T18:55:30.987Z,94884.81
2023-10-11T18:57:57.414Z,94886.19
2023-10-11T19:00:24.832Z,94888.69
2023-10-11T19:02:57.799Z,94894.19
2023-10-11T19:05:24.313Z,94883.06
2023-10-11T19:07:58.521Z,94890.16
2023-10-11T19:10:29.977Z,94893.75
2023-10-11T19:12:58.894Z,94894.91
2023-10-11T19:15:25.781Z,94888.09
2023-10-11T19:17:52.562Z,94890.06
2023-10-11T19:20:19.529Z,94892.84
2023-10-11T19:22:49.782Z,94888.22
2023-10-11T19:25:17.741Z,94897.78
2023-10-11T19:27:45.345Z,94892.91
2023-10-11T19:30:18.354Z,94892.66
2023-10-11T19:32:45.608Z,94893.22
2023-10-11T19:35:23.529Z,94888.31
2023-10-11T19:37:51.057Z,94892.19
2023-10-11T19:40:20.917Z,94888.38
2023-10-11T19:42:47.692Z,94899.31
2023-10-11T19:45:17.660Z,94899.06
2023-10-11T19:47:44.766Z,94889.84
2023-10-11T19:50:14.996Z,94895.03
2023-10-11T19:52:44.948Z,94900.22
2023-10-11T19:58:01.396Z,94904.88
2023-10-11T20:00:28.743Z,94900.84
2023-10-11T20:02:57.632Z,94903.59
2023-10-11T20:05:25.771Z,94892.47
2023-10-11T20:07:53.657Z,94904.41
2023-10-11T20:10:20.518Z,94909.59
2023-10-11T20:12:47.701Z,94905.56
2023-10-11T20:15:15.765Z,94901.78
2023-10-11T20:17:56.863Z,94912.38
2023-10-11T20:20:23.648Z,94905.09
2023-10-11T20:22:50.900Z,94915.41
2023-10-11T20:25:20.532Z,94907.00
2023-10-11T20:27:49.188Z,94910.00
2023-10-11T20:30:19.388Z,94914.06
2023-10-11T20:32:46.320Z,94904.84
2023-10-11T20:35:14.256Z,94914.34
2023-10-11T20:37:41.638Z,94916.50
2023-10-11T20:40:38.086Z,94916.25
2023-10-11T20:43:04.509Z,94911.94
2023-10-11T20:45:30.979Z,94906.25
2023-10-11T20:47:57.666Z,94908.16
2023-10-11T20:50:48.931Z,94908.16
2023-10-11T20:53:15.436Z,94907.59
2023-10-11T20:55:46.341Z,94913.06
2023-10-11T20:58:14.706Z,94918.75
2023-10-11T21:00:50.683Z,94913.63
2023-10-11T21:05:58.809Z,94929.09
2023-10-11T21:08:33.152Z,94929.66
2023-10-11T21:10:59.647Z,94926.13
2023-10-11T21:16:08.724Z,94924.47
2023-10-11T21:18:45.581Z,94925.28
2023-10-11T21:21:27.669Z,94923.13
2023-10-11T21:23:55.217Z,94919.84
2023-10-11T21:26:24.486Z,94915.25
2023-10-11T21:28:55.201Z,94906.56
2023-10-11T21:31:22.095Z,94916.91
2023-10-11T21:33:48.619Z,94919.88
2023-10-11T21:36:16.967Z,94907.69
2023-10-11T21:38:45.831Z,94914.50
2023-10-11T21:41:15.160Z,94916.38
2023-10-11T21:43:41.598Z,94913.69
2023-10-11T21:46:11.771Z,94912.06
2023-10-11T21:48:39.667Z,94913.41
2023-10-11T21:51:10.648Z,94913.97
2023-10-11T21:53:36.992Z,94906.91
2023-10-11T21:56:03.365Z,94902.56
2023-10-11T21:58:31.287Z,94903.09
2023-10-11T22:01:22.308Z,94900.66
2023-10-11T22:03:49.718Z,94918.56
2023-10-11T22:06:19.257Z,94918.56
2023-10-11T22:08:49.461Z,94918.03
2023-10-11T22:11:17.664Z,94914.22
2023-10-11T22:13:45.475Z,94917.47
2023-10-11T22:16:12.638Z,94920.19
2023-10-11T22:18:41.515Z,94913.41
2023-10-11T22:21:08.534Z,94917.75
2023-10-11T22:23:34.925Z,94910.97
2023-10-11T22:26:01.363Z,94913.97
2023-10-11T22:28:27.750Z,94909.59
2023-10-11T22:30:54.165Z,94904.41
2023-10-11T22:33:23.257Z,94906.31
2023-10-11T22:35:52.189Z,94908.22
2023-10-11T22:38:20.688Z,94896.03
2023-10-11T22:40:47.019Z,94901.44
2023-10-11T22:43:27.728Z,94903.91
2023-10-11T22:45:57.131Z,94901.16
2023-10-11T22:48:24.109Z,94901.69
2023-10-11T22:50:52.854Z,94899.56
2023-10-11T22:53:19.330Z,94899.56
2023-10-11T22:55:45.749Z,94905.22
2023-10-11T22:58:17.245Z,94897.63
2023-10-11T23:00:43.654Z,94906.59
2023-10-11T23:03:13.444Z,94910.38
2023-10-11T23:05:41.771Z,94915.53
2023-10-11T23:08:08.211Z,94893.56
2023-10-11T23:10:43.644Z,94899.00
2023-10-11T23:13:10.049Z,94909.31
2023-10-11T23:15:42.989Z,94902.53
2023-10-11T23:18:15.796Z,94903.88
2023-10-11T23:20:57.679Z,94918.75
2023-10-11T23:23:30.532Z,94913.84
2023-10-11T23:26:05.790Z,94897.59
2023-10-11T23:28:36.269Z,94917.09
2023-10-11T23:31:09.241Z,94913.03
2023-10-11T23:33:49.273Z,94903.28
2023-10-11T23:36:15.990Z,94900.81
2023-10-11T23:38:51.347Z,94909.22
2023-10-11T23:41:37.238Z,94911.13
2023-10-11T23:44:23.210Z,94901.91
2023-10-11T23:46:57.487Z,94904.63
2023-10-11T23:52:06.644Z,94905.44
2023-10-11T23:54:33.733Z,94904.34
2023-10-11T23:57:00.167Z,94917.66
2023-10-11T23:59:32.258Z,94913.31
